Del Valle, TX (78617)

10:07 PM CDT on September 15, 2014 (GMT -0500)
Berdoll Farms | Change Station
CLOSE
Current Station
Personal Weather Station
Location: Texas, TX
Elevation: 489 ft
Nearby Weather Stations

Elev 489 ft 30.17 °N, 97.61 °W | Updated 7 minutes ago

Partly Cloudy
Partly Cloudy
75.4 °F
Feels Like 76 °F
N
0.0
Wind Variable Wind from SW

Today
High -- | Low -- °F
--% Chance of Precip.
Yesterday
High -- | Low -- °F
Precip. -- in
7:14 AM 7:35 PM
Waning Gibbous, 50% visible
Pressure 30.05 in
Visibility 10.0 miles
Clouds Scattered Clouds 15000 ft
Mostly Cloudy 20000 ft
Heat Index 76 °F
Dew Point 70 °F
Humidity 83%
Rainfall 0.00 in
Snow Depth Not available.
UV 0 out of 12
Pollen 9.80 out of 12
Ozone Good
PM2.5 Good
Flu Activity Not available.
METAR KAUS 160253Z 04006KT 10SM SCT150 BKN200 27/22 A3008 RMK AO2 SLP176 T02670217 52015

More Conditions Fewer Conditions

Pressure 30.05 in
Visibility 10.0 miles
Clouds Scattered Clouds 15000 ft
Mostly Cloudy 20000 ft
Heat Index 76 °F
Dew Point 70 °F
Humidity 83%
Rainfall 0.00 in
Snow Depth Not available.
UV 0 out of 12
Pollen 9.80 out of 12
Ozone Good
PM2.5 Good
Flu Activity Not available.
METAR KAUS 160253Z 04006KT 10SM SCT150 BKN200 27/22 A3008 RMK AO2 SLP176 T02670217 52015

More Conditions Fewer Conditions

10-Day Weather Forecast

Almanac

Astronomy

Sep. 15, 2014 Rise Set
Actual Time 7:14 AM CDT 7:35 PM CDT
Civil Twilight 6:50 AM CDT 7:59 PM CDT
Nautical Twilight 6:22 AM CDT 8:27 PM CDT
Astronomical Twilight 5:54 AM CDT 8:56 PM CDT
Moon No Moon Rise 1:51 PM CDT (9/15)
Length of Visible Light 13h 08m
Length of Day
12h 20m
Tomorrow will be 1m 49s shorter.
Waning Gibbous, 50% of the Moon is Illuminated
Today
Waning Gibbous
Sep 24
New
Oct 1
First Quarter
Oct 8
Full
Oct 15
Last Quarter

Today's Extremes

State Highs State Lows

Community

WunderPhotos

Upload Photos

1,753,689 photos uploaded!

Nearby

Air Quality

  Air Quality AQ Index Pollutant
Yesterday Good
PM2.5
Yesterday Good
OZONE
Current Good
PM2.5
Current Good
OZONE
Monday Moderate
OZONE
Monday Good
PM10
Tuesday Good
OZONE
Tuesday Good
PM10
Wednesday Good
OZONE
Wednesday Good
PM10
Thursday Good
OZONE
Thursday Good
PM10

Snow Depth

Station Depth Elevation
No new snow has been reported.

Earthquake Activity

City Distance Mag. Time & Date
No recent earthquake activity has been reported nearby.
Minimum magnitude displayed is 2.5.

Coastal Water Temperatures

Place Temperature
No Stations Reporting

Nearby Weather Stations